Fruita, Colorado
Current Conditions -  °F | °C
As of 7:53 AM on Thursday 30 Oct 2014 (Local Time) from KGJT Reporting Station
Clear Clear  
Wind Chill: 29°   Ceiling: Unl
Heat Index: 35°   Visibility: 10mi
Dew Point: 21°   Wind: 7mph
Humidity: 57%   Direction: 110°ESE
Pressure: 30.35"   Gusts: NA
Location:  39.16°N, 108.73°W
Report Text: KGJT 301353Z 11006KT 10SM CLR 02/M06 A3035 RMK AO2 SLP281 T00171061
Loading
Personal Weather Stations






























Interactive Weather Map
Tropical Storm Tracking
New forecast layout! Learn more

10-Day Weather Forecast

Advertisements
Track Severe Weather on mobile